createdAt,value
2022-11-28T00:01:17.998Z,100914.34
2022-11-28T00:03:45.791Z,100924.13
2022-11-28T00:06:13.608Z,100923.25
2022-11-28T00:08:41.493Z,100917.00
2022-11-28T00:11:12.313Z,100917.00
2022-11-28T00:13:42.094Z,100921.47
2022-11-28T00:16:13.980Z,100916.13
2022-11-28T00:18:41.747Z,100913.47
2022-11-28T00:21:12.409Z,100914.34
2022-11-28T00:23:40.341Z,100910.81
2022-11-28T00:26:10.972Z,100898.38
2022-11-28T00:28:40.153Z,100895.69
2022-11-28T00:31:13.491Z,100898.38
2022-11-28T00:33:41.187Z,100901.03
2022-11-28T00:36:09.423Z,100887.72
2022-11-28T00:38:37.182Z,100885.94
2022-11-28T00:41:06.724Z,100889.50
2022-11-28T00:43:35.031Z,100878.84
2022-11-28T00:46:03.147Z,100877.97
2022-11-28T00:48:33.409Z,100872.59
2022-11-28T00:51:07.815Z,100868.19
2022-11-28T00:53:36.163Z,100865.53
2022-11-28T00:56:05.452Z,100860.19
2022-11-28T00:58:33.274Z,100849.53
2022-11-28T01:01:01.434Z,100851.31
2022-11-28T01:03:29.159Z,100843.34
2022-11-28T01:05:58.264Z,100838.88
2022-11-28T01:08:26.113Z,100841.53
2022-11-28T01:10:53.842Z,100846.88
2022-11-28T01:13:21.560Z,100846.00
2022-11-28T01:15:49.350Z,100842.44
2022-11-28T01:18:17.189Z,100836.22
2022-11-28T01:20:44.967Z,100831.78
2022-11-28T01:23:14.202Z,100829.13
2022-11-28T01:25:41.900Z,100834.44
2022-11-28T01:28:09.621Z,100830.88
2022-11-28T01:30:37.370Z,100826.44
2022-11-28T01:33:05.062Z,100832.69
2022-11-28T01:35:32.808Z,100835.34
2022-11-28T01:38:00.570Z,100841.53
2022-11-28T01:40:29.801Z,100837.09
2022-11-28T01:42:57.593Z,100841.53
2022-11-28T01:45:27.813Z,100846.88
2022-11-28T01:47:59.475Z,100846.00
2022-11-28T01:50:28.979Z,100842.44
2022-11-28T01:53:01.193Z,100841.53
2022-11-28T01:55:38.836Z,100838.88
2022-11-28T01:58:07.644Z,100835.31
2022-11-28T02:00:35.659Z,100822.00
2022-11-28T02:03:07.702Z,100829.13
2022-11-28T02:05:35.407Z,100838.88
2022-11-28T02:08:03.733Z,100837.09
2022-11-28T02:10:45.061Z,100844.19
2022-11-28T02:13:28.683Z,100838.88
2022-11-28T02:16:11.944Z,100827.34
2022-11-28T02:18:58.295Z,100827.34
2022-11-28T02:21:39.593Z,100819.34
2022-11-28T02:24:29.338Z,100837.13
2022-11-28T02:27:14.563Z,100838.88
2022-11-28T02:30:15.402Z,100846.88
2022-11-28T02:33:04.034Z,100855.75
2022-11-28T02:35:39.325Z,100846.00
2022-11-28T02:38:18.309Z,100841.56
2022-11-28T02:40:56.071Z,100842.44
2022-11-28T02:43:32.754Z,100838.00
2022-11-28T02:46:05.338Z,100837.13
2022-11-28T02:48:41.154Z,100838.88
2022-11-28T02:51:15.381Z,100836.22
2022-11-28T02:53:46.719Z,100836.22
2022-11-28T02:56:14.831Z,100834.44
2022-11-28T02:58:42.567Z,100837.13
2022-11-28T03:01:19.403Z,100826.47
2022-11-28T03:04:03.285Z,100827.34
2022-11-28T03:06:44.248Z,100825.56
2022-11-28T03:09:45.566Z,100829.13
2022-11-28T03:12:26.019Z,100823.81
2022-11-28T03:14:56.197Z,100822.91
2022-11-28T03:17:33.371Z,100824.69
2022-11-28T03:20:16.794Z,100823.81
2022-11-28T03:22:55.949Z,100822.88
2022-11-28T03:25:29.884Z,100822.88
2022-11-28T03:28:03.335Z,100820.22
2022-11-28T03:30:35.625Z,100827.34
2022-11-28T03:33:04.929Z,100825.56
2022-11-28T03:35:40.456Z,100832.66
2022-11-28T03:38:12.448Z,100819.34
2022-11-28T03:40:44.909Z,100814.03
2022-11-28T03:43:14.769Z,100814.03
2022-11-28T03:45:46.297Z,100815.78
2022-11-28T03:48:18.613Z,100812.25
2022-11-28T03:50:52.780Z,100813.13
2022-11-28T03:53:26.036Z,100821.13
2022-11-28T03:56:00.896Z,100822.03
2022-11-28T03:58:36.333Z,100822.91
2022-11-28T04:01:12.064Z,100816.66
2022-11-28T04:03:46.669Z,100810.47
2022-11-28T04:06:22.030Z,100820.25
2022-11-28T04:08:59.434Z,100820.25
2022-11-28T04:11:38.364Z,100820.25
2022-11-28T04:14:13.388Z,100816.66
2022-11-28T04:16:53.619Z,100820.25
2022-11-28T04:19:29.821Z,100808.66
2022-11-28T04:22:04.064Z,100814.84
2022-11-28T04:24:35.845Z,100812.19
2022-11-28T04:27:07.510Z,100806.88
2022-11-28T04:29:39.169Z,100799.78
2022-11-28T04:32:09.129Z,100799.81
2022-11-28T04:34:38.627Z,100799.78
2022-11-28T04:37:10.156Z,100806.91
2022-11-28T04:39:39.229Z,100808.69
2022-11-28T04:42:12.525Z,100807.81
2022-11-28T04:44:47.182Z,100814.00
2022-11-28T04:47:15.571Z,100814.91
2022-11-28T04:49:43.563Z,100799.81
2022-11-28T04:52:20.161Z,100801.59
2022-11-28T04:54:57.507Z,100800.66
2022-11-28T04:57:31.343Z,100809.53
2022-11-28T05:00:02.138Z,100806.00
2022-11-28T05:02:32.524Z,100807.78
2022-11-28T05:05:09.551Z,100809.53
2022-11-28T05:07:38.857Z,100806.00
2022-11-28T05:10:08.151Z,100818.44
2022-11-28T05:12:35.924Z,100808.66
2022-11-28T05:15:03.782Z,100817.53
2022-11-28T05:17:31.576Z,100815.72
2022-11-28T05:19:59.356Z,100815.72
2022-11-28T05:22:32.220Z,100817.53
2022-11-28T05:28:51.589Z,100817.53
2022-11-28T05:31:21.490Z,100816.66
2022-11-28T05:33:49.472Z,100818.41
2022-11-28T05:36:18.968Z,100818.41
2022-11-28T05:38:46.883Z,100814.84
2022-11-28T05:41:23.310Z,100813.06
2022-11-28T05:43:51.422Z,100814.84
2022-11-28T05:46:20.325Z,100828.16
2022-11-28T05:48:48.813Z,100822.84
2022-11-28T05:51:16.898Z,100817.53
2022-11-28T05:53:46.297Z,100818.41
2022-11-28T05:56:16.102Z,100818.41
2022-11-28T05:58:46.917Z,100809.53
2022-11-28T06:01:16.815Z,100819.28
2022-11-28T06:03:45.617Z,100824.63
2022-11-28T06:06:15.441Z,100820.19
2022-11-28T06:08:44.001Z,100819.31
2022-11-28T06:11:14.923Z,100821.97
2022-11-28T06:13:43.340Z,100815.72
2022-11-28T06:16:17.618Z,100803.34
2022-11-28T06:18:47.767Z,100800.66
2022-11-28T06:21:19.771Z,100802.44
2022-11-28T06:23:50.891Z,100803.31
2022-11-28T06:26:21.918Z,100796.22
2022-11-28T06:28:50.106Z,100800.63
2022-11-28T06:31:23.730Z,100796.22
2022-11-28T06:33:52.580Z,100797.09
2022-11-28T06:36:21.777Z,100802.44
2022-11-28T06:38:49.992Z,100805.97
2022-11-28T06:41:19.816Z,100797.97
2022-11-28T06:43:47.745Z,100802.44
2022-11-28T06:46:18.140Z,100802.44
2022-11-28T06:48:49.542Z,100807.75
2022-11-28T06:51:18.344Z,100811.28
2022-11-28T06:53:46.397Z,100807.75
2022-11-28T06:56:16.289Z,100815.72
2022-11-28T06:58:45.220Z,100812.19
2022-11-28T07:01:15.584Z,100816.63
2022-11-28T07:03:44.374Z,100815.72
2022-11-28T07:06:14.773Z,100818.41
2022-11-28T07:08:43.287Z,100812.19
2022-11-28T07:11:13.304Z,100818.41
2022-11-28T07:13:41.992Z,100827.28
2022-11-28T07:16:15.741Z,100831.69
2022-11-28T07:18:43.959Z,100837.94
2022-11-28T07:21:14.821Z,100829.03
2022-11-28T07:23:44.185Z,100832.63
2022-11-28T07:26:15.917Z,100837.94
2022-11-28T07:28:44.581Z,100824.59
2022-11-28T07:31:14.486Z,100829.94
2022-11-28T07:33:43.932Z,100827.28
2022-11-28T07:36:16.001Z,100829.03
2022-11-28T07:38:44.421Z,100839.69
2022-11-28T07:41:14.375Z,100838.81
2022-11-28T07:43:44.028Z,100841.47
2022-11-28T07:46:14.138Z,100847.69
2022-11-28T07:48:42.412Z,100839.69
2022-11-28T07:51:12.339Z,100840.56
2022-11-28T07:53:42.513Z,100838.81
2022-11-28T07:56:13.926Z,100830.81
2022-11-28T07:58:42.939Z,100834.38
2022-11-28T08:01:11.729Z,100834.38
2022-11-28T08:03:40.232Z,100838.81
2022-11-28T08:06:09.301Z,100848.59
2022-11-28T08:08:37.158Z,100838.81
2022-11-28T08:11:08.198Z,100841.47
2022-11-28T08:13:36.845Z,100841.47
2022-11-28T08:16:06.652Z,100844.16
2022-11-28T08:18:35.065Z,100847.75
2022-11-28T08:21:07.338Z,100847.75
2022-11-28T08:23:36.364Z,100845.94
2022-11-28T08:26:04.325Z,100849.53
2022-11-28T08:28:33.901Z,100843.28
2022-11-28T08:31:09.048Z,100842.41
2022-11-28T08:33:36.807Z,100850.41
2022-11-28T08:36:05.716Z,100848.63
2022-11-28T08:38:33.709Z,100850.41
2022-11-28T08:41:02.987Z,100850.41
2022-11-28T08:43:30.832Z,100848.63
2022-11-28T08:45:59.992Z,100850.41
2022-11-28T08:48:27.734Z,100846.00
2022-11-28T08:50:55.504Z,100855.72
2022-11-28T08:53:23.361Z,100852.19
2022-11-28T08:55:55.035Z,100848.66
2022-11-28T08:58:22.823Z,100853.97
2022-11-28T09:00:50.638Z,100853.06
2022-11-28T09:03:21.300Z,100858.38
2022-11-28T09:05:52.169Z,100855.75
2022-11-28T09:08:21.738Z,100856.63
2022-11-28T09:10:49.453Z,100862.84
2022-11-28T09:13:17.215Z,100861.97
2022-11-28T09:15:51.149Z,100860.22
2022-11-28T09:18:21.691Z,100864.63
2022-11-28T09:20:49.491Z,100866.41
2022-11-28T09:23:17.286Z,100871.72
2022-11-28T09:25:45.161Z,100869.94
2022-11-28T09:28:12.934Z,100870.84
2022-11-28T09:30:40.688Z,100866.41
2022-11-28T09:33:08.732Z,100870.84
2022-11-28T09:35:40.290Z,100870.84
2022-11-28T09:38:08.642Z,100876.19
2022-11-28T09:40:38.812Z,100877.06
2022-11-28T09:43:15.791Z,100877.06
2022-11-28T09:45:45.831Z,100878.84
2022-11-28T09:48:26.584Z,100887.72
2022-11-28T09:51:01.017Z,100875.31
2022-11-28T09:53:36.274Z,100878.84
2022-11-28T09:56:13.229Z,100885.03
2022-11-28T09:58:46.914Z,100882.38
2022-11-28T10:01:18.924Z,100889.50
2022-11-28T10:03:55.192Z,100880.59
2022-11-28T10:06:30.978Z,100880.59
2022-11-28T10:09:28.004Z,100877.94
2022-11-28T10:12:14.838Z,100880.59
2022-11-28T10:15:05.855Z,100878.84
2022-11-28T10:17:44.400Z,100874.41
2022-11-28T10:20:17.101Z,100877.94
2022-11-28T10:22:49.732Z,100876.19
2022-11-28T10:25:21.193Z,100874.38
2022-11-28T10:27:50.370Z,100869.06
2022-11-28T10:30:23.236Z,100869.97
2022-11-28T10:32:58.261Z,100869.97
2022-11-28T10:35:32.200Z,100867.31
2022-11-28T10:38:01.395Z,100873.50
2022-11-28T10:40:37.445Z,100862.84
2022-11-28T10:43:12.197Z,100865.53
2022-11-28T10:45:49.822Z,100859.31
2022-11-28T10:48:41.355Z,100861.09
2022-11-28T10:51:25.744Z,100855.75
2022-11-28T10:54:05.650Z,100862.88
2022-11-28T10:56:42.091Z,100859.31
2022-11-28T10:59:19.405Z,100861.06
2022-11-28T11:01:50.456Z,100859.31
2022-11-28T11:04:20.978Z,100857.53
2022-11-28T11:07:10.582Z,100862.88
2022-11-28T11:09:43.901Z,100854.88
2022-11-28T11:12:21.515Z,100856.63
2022-11-28T11:14:49.350Z,100850.41
2022-11-28T11:17:34.246Z,100850.41
2022-11-28T11:20:03.718Z,100855.75
2022-11-28T11:22:32.607Z,100852.22
2022-11-28T11:25:17.968Z,100853.97
2022-11-28T11:27:50.828Z,100861.06
2022-11-28T11:30:27.121Z,100856.63
2022-11-28T11:32:56.327Z,100862.84
2022-11-28T11:35:27.126Z,100858.41
2022-11-28T11:38:14.900Z,100861.97
2022-11-28T11:40:44.062Z,100861.06
2022-11-28T11:43:26.680Z,100854.84
2022-11-28T11:46:09.052Z,100855.75
2022-11-28T11:48:39.818Z,100855.75
2022-11-28T11:51:08.946Z,100856.63
2022-11-28T11:53:36.669Z,100861.94
2022-11-28T11:56:06.119Z,100866.41
2022-11-28T11:58:41.192Z,100866.38
2022-11-28T12:01:12.714Z,100860.16
2022-11-28T12:03:42.827Z,100857.50
2022-11-28T12:06:16.843Z,100867.28
2022-11-28T12:08:51.341Z,100866.38
2022-11-28T12:11:25.944Z,100862.81
2022-11-28T12:13:54.448Z,100869.94
2022-11-28T12:16:38.767Z,100865.47
2022-11-28T12:19:17.874Z,100872.63
2022-11-28T12:21:59.887Z,100875.28
2022-11-28T12:24:34.749Z,100875.28
2022-11-28T12:27:13.095Z,100879.69
2022-11-28T12:29:52.254Z,100869.03
2022-11-28T12:32:38.072Z,100877.03
2022-11-28T12:35:19.100Z,100877.03
2022-11-28T12:38:10.854Z,100875.28
2022-11-28T12:40:49.609Z,100876.16
2022-11-28T12:43:32.366Z,100872.63
2022-11-28T12:46:03.377Z,100877.03
2022-11-28T12:48:43.154Z,100872.59
2022-11-28T12:51:21.895Z,100883.28
2022-11-28T12:54:07.447Z,100869.94
2022-11-28T12:56:48.649Z,100862.81
2022-11-28T12:59:26.917Z,100873.47
2022-11-28T13:02:09.657Z,100869.94
2022-11-28T13:05:06.250Z,100877.03
2022-11-28T13:07:44.939Z,100873.50
2022-11-28T13:10:19.665Z,100867.28
2022-11-28T13:12:57.038Z,100867.28
2022-11-28T13:15:42.135Z,100870.81
2022-11-28T13:18:20.942Z,100868.13
2022-11-28T13:20:54.582Z,100863.72
2022-11-28T13:23:28.571Z,100865.47
2022-11-28T13:26:02.618Z,100870.78
2022-11-28T13:28:37.387Z,100865.47
2022-11-28T13:31:11.020Z,100868.13
2022-11-28T13:33:52.056Z,100865.47
2022-11-28T13:39:23.801Z,100868.13
2022-11-28T13:42:52.352Z,100871.69
2022-11-28T13:44:57.521Z,100869.03
2022-11-28T13:47:34.874Z,100868.16
2022-11-28T13:50:38.246Z,100865.50
2022-11-28T13:53:22.901Z,100872.59
2022-11-28T13:55:52.687Z,100877.03
2022-11-28T13:58:28.401Z,100883.25
2022-11-28T14:01:07.783Z,100875.25
2022-11-28T14:03:46.324Z,100876.16
2022-11-28T14:06:18.250Z,100883.25
2022-11-28T14:08:50.099Z,100885.91
2022-11-28T14:11:59.907Z,100883.25
2022-11-28T14:14:54.425Z,100892.13
2022-11-28T14:17:37.781Z,100886.78
2022-11-28T14:20:20.470Z,100891.22
2022-11-28T14:22:55.062Z,100884.13
2022-11-28T14:25:28.466Z,100887.69
2022-11-28T14:27:59.897Z,100887.69
2022-11-28T14:30:33.369Z,100890.34
2022-11-28T14:33:07.216Z,100887.66
2022-11-28T14:36:16.812Z,100896.56
2022-11-28T14:38:47.453Z,100894.78
2022-11-28T14:41:16.922Z,100895.66
2022-11-28T14:43:46.363Z,100896.56
2022-11-28T14:46:35.043Z,100899.22
2022-11-28T14:49:19.136Z,100902.75
2022-11-28T14:52:38.341Z,100907.22
2022-11-28T14:55:17.950Z,100901.88
2022-11-28T14:57:56.122Z,100908.09
2022-11-28T15:00:26.539Z,100906.31
2022-11-28T15:03:20.571Z,100906.34
2022-11-28T15:05:50.887Z,100906.31
2022-11-28T15:08:30.069Z,100911.66
2022-11-28T15:11:09.775Z,100917.88
2022-11-28T15:13:53.915Z,100920.53
2022-11-28T15:16:24.024Z,100921.44
2022-11-28T15:18:54.854Z,100924.97
2022-11-28T15:21:23.383Z,100928.53
2022-11-28T15:23:55.133Z,100928.53
2022-11-28T15:26:29.415Z,100939.19
2022-11-28T15:29:10.341Z,100933.88
2022-11-28T15:31:38.904Z,100921.44
2022-11-28T15:34:09.996Z,100925.88
2022-11-28T15:36:40.216Z,100926.78
2022-11-28T15:39:26.165Z,100924.97
2022-11-28T15:41:56.731Z,100922.31
2022-11-28T15:44:25.238Z,100933.00
2022-11-28T15:46:53.442Z,100926.78
2022-11-28T15:49:26.610Z,100934.78
2022-11-28T15:51:56.220Z,100935.66
2022-11-28T15:54:36.338Z,100936.53
2022-11-28T15:57:05.991Z,100943.66
2022-11-28T15:59:37.292Z,100948.09
2022-11-28T16:02:15.094Z,100944.53
2022-11-28T16:04:44.044Z,100956.09
2022-11-28T16:07:16.156Z,100939.22
2022-11-28T16:09:55.161Z,100948.97
2022-11-28T16:12:25.474Z,100946.28
2022-11-28T16:14:58.690Z,100949.88
2022-11-28T16:17:33.081Z,100954.28
2022-11-28T16:20:03.649Z,100954.28
2022-11-28T16:22:40.951Z,100950.75
2022-11-28T16:25:15.277Z,100956.97
2022-11-28T16:27:48.825Z,100953.44
2022-11-28T16:30:36.740Z,100954.28
2022-11-28T16:33:26.561Z,100963.19
2022-11-28T16:35:54.588Z,100960.53
2022-11-28T16:38:29.624Z,100964.06
2022-11-28T16:41:01.729Z,100965.84
2022-11-28T16:43:35.743Z,100975.63
2022-11-28T16:46:06.507Z,100971.19
2022-11-28T16:48:37.202Z,100968.50
2022-11-28T16:51:34.301Z,100972.09
2022-11-28T16:54:23.575Z,100972.97
2022-11-28T16:56:51.482Z,100980.09
2022-11-28T16:59:21.454Z,100974.75
2022-11-28T17:01:53.195Z,100985.41
2022-11-28T17:04:22.705Z,100978.28
2022-11-28T17:06:50.840Z,100980.06
2022-11-28T17:09:19.234Z,100984.53
2022-11-28T17:11:51.889Z,100979.19
2022-11-28T17:14:21.350Z,100990.75
2022-11-28T17:16:49.289Z,100989.88
2022-11-28T17:19:17.648Z,100976.53
2022-11-28T17:21:47.863Z,100988.97
2022-11-28T17:24:18.714Z,100982.72
2022-11-28T17:26:47.190Z,100990.75
2022-11-28T17:29:16.667Z,100992.53
2022-11-28T17:31:47.380Z,100993.41
2022-11-28T17:34:17.453Z,100991.63
2022-11-28T17:36:45.730Z,101002.28
2022-11-28T17:39:13.858Z,101009.41
2022-11-28T17:41:42.390Z,101010.31
2022-11-28T17:44:22.334Z,101006.75
2022-11-28T17:46:54.663Z,101015.63
2022-11-28T17:49:23.541Z,101013.88
2022-11-28T17:51:52.561Z,101012.09
2022-11-28T17:54:27.665Z,101013.88
2022-11-28T17:57:01.705Z,101012.97
2022-11-28T17:59:29.610Z,101011.19
2022-11-28T18:01:58.952Z,101014.72
2022-11-28T18:04:27.002Z,101018.28
2022-11-28T18:06:54.808Z,101014.72
2022-11-28T18:09:22.642Z,101013.84
2022-11-28T18:11:51.715Z,101023.63
2022-11-28T18:14:20.061Z,101008.47
2022-11-28T18:16:48.105Z,101020.06
2022-11-28T18:19:17.407Z,101022.72
2022-11-28T18:21:45.224Z,101020.06
2022-11-28T18:24:17.077Z,101018.25
2022-11-28T18:26:44.955Z,101024.53
2022-11-28T18:29:13.088Z,101035.16
2022-11-28T18:31:40.898Z,101026.28
2022-11-28T18:34:09.569Z,101033.41
2022-11-28T18:36:40.038Z,101033.41
2022-11-28T18:39:10.074Z,101026.28
2022-11-28T18:41:40.061Z,101028.94
2022-11-28T18:44:08.139Z,101024.50
2022-11-28T18:46:36.457Z,101028.94
2022-11-28T18:49:05.600Z,101029.84
2022-11-28T18:51:35.193Z,101028.03
2022-11-28T18:54:06.249Z,101032.50
2022-11-28T18:56:34.091Z,101031.63
2022-11-28T18:59:02.378Z,101043.19
2022-11-28T19:01:32.075Z,101039.63
2022-11-28T19:04:02.832Z,101041.38
2022-11-28T19:06:30.996Z,101047.63
2022-11-28T19:09:00.585Z,101035.16
2022-11-28T19:11:30.600Z,101045.81
2022-11-28T19:14:00.650Z,101049.41
2022-11-28T19:16:29.884Z,101044.06
2022-11-28T19:18:58.452Z,101044.94
2022-11-28T19:21:28.854Z,101044.97
2022-11-28T19:23:58.048Z,101048.50
2022-11-28T19:26:28.039Z,101050.28
2022-11-28T19:28:59.531Z,101052.06
2022-11-28T19:31:29.088Z,101052.06
2022-11-28T19:34:01.538Z,101058.28
2022-11-28T19:36:30.256Z,101059.19
2022-11-28T19:38:58.625Z,101065.41
2022-11-28T19:41:26.994Z,101063.63
2022-11-28T19:43:54.863Z,101065.41
2022-11-28T19:46:24.652Z,101062.75
2022-11-28T19:48:52.635Z,101063.63
2022-11-28T19:51:21.130Z,101067.16
2022-11-28T19:53:48.994Z,101063.63
2022-11-28T19:56:18.926Z,101064.53
2022-11-28T19:58:48.673Z,101057.41
2022-11-28T20:01:21.094Z,101067.16
2022-11-28T20:03:50.479Z,101067.16
2022-11-28T20:06:19.975Z,101065.41
2022-11-28T20:08:48.642Z,101071.63
2022-11-28T20:11:18.242Z,101076.09
2022-11-28T20:13:46.855Z,101073.41
2022-11-28T20:16:19.531Z,101073.44
2022-11-28T20:18:47.496Z,101073.44
2022-11-28T20:21:18.661Z,101076.97
2022-11-28T20:23:49.451Z,101078.75
2022-11-28T20:26:18.851Z,101080.50
2022-11-28T20:28:49.219Z,101084.09
2022-11-28T20:31:20.495Z,101080.53
2022-11-28T20:33:48.867Z,101081.41
2022-11-28T20:36:20.024Z,101087.63
2022-11-28T20:38:48.141Z,101084.09
2022-11-28T20:41:18.345Z,101088.53
2022-11-28T20:43:46.557Z,101095.66
2022-11-28T20:46:16.201Z,101094.78
2022-11-28T20:48:44.490Z,101094.78
2022-11-28T20:51:14.789Z,101090.31
2022-11-28T20:53:45.147Z,101091.22
2022-11-28T20:56:15.096Z,101103.66
2022-11-28T20:58:43.151Z,101103.66
2022-11-28T21:01:16.101Z,101105.47
2022-11-28T21:03:44.344Z,101099.22
2022-11-28T21:06:13.265Z,101107.25
2022-11-28T21:08:41.503Z,101107.22
2022-11-28T21:11:30.551Z,101103.66
2022-11-28T21:14:10.454Z,101105.44
2022-11-28T21:16:38.307Z,101108.13
2022-11-28T21:19:09.004Z,101106.31
2022-11-28T21:21:38.713Z,101109.00
2022-11-28T21:24:09.671Z,101109.91
2022-11-28T21:26:42.410Z,101109.88
2022-11-28T21:29:13.794Z,101112.56
2022-11-28T21:31:45.529Z,101118.81
2022-11-28T21:34:15.545Z,101121.47
2022-11-28T21:36:43.893Z,101119.69
2022-11-28T21:39:15.324Z,101123.25
2022-11-28T21:41:44.694Z,101125.91
2022-11-28T21:44:12.489Z,101129.50
2022-11-28T21:46:40.370Z,101125.03
2022-11-28T21:49:08.257Z,101127.69
2022-11-28T21:51:36.193Z,101122.34
2022-11-28T21:54:04.362Z,101125.94
2022-11-28T21:56:32.092Z,101117.91
2022-11-28T21:59:01.340Z,101123.25
2022-11-28T22:01:29.172Z,101121.47
2022-11-28T22:04:02.111Z,101126.81
2022-11-28T22:06:31.079Z,101129.47
2022-11-28T22:08:59.462Z,101131.28
2022-11-28T22:11:28.406Z,101126.81
2022-11-28T22:13:56.304Z,101125.94
2022-11-28T22:16:27.989Z,101127.75
2022-11-28T22:18:58.866Z,101120.59
2022-11-28T22:24:15.439Z,101125.06
2022-11-28T22:26:43.266Z,101134.84
2022-11-28T22:29:11.222Z,101129.50
2022-11-28T22:31:40.541Z,101134.84
2022-11-28T22:34:09.981Z,101133.06
2022-11-28T22:36:38.698Z,101141.06
2022-11-28T22:39:06.622Z,101141.97
2022-11-28T22:41:34.542Z,101141.97
2022-11-28T22:44:04.074Z,101147.28
2022-11-28T22:46:32.555Z,101146.41
2022-11-28T22:49:02.875Z,101142.84
2022-11-28T22:51:31.662Z,101145.50
2022-11-28T22:54:01.386Z,101142.84
2022-11-28T22:56:30.913Z,101150.88
2022-11-28T22:58:58.815Z,101155.28
2022-11-28T23:01:28.526Z,101157.06
2022-11-28T23:03:56.976Z,101155.31
2022-11-28T23:06:28.511Z,101156.19
2022-11-28T23:08:57.076Z,101155.31
2022-11-28T23:11:26.605Z,101164.19
2022-11-28T23:13:54.637Z,101157.97
2022-11-28T23:16:24.806Z,101164.22
2022-11-28T23:18:55.612Z,101162.44
2022-11-28T23:21:25.053Z,101165.97
2022-11-28T23:23:55.009Z,101181.13
2022-11-28T23:26:25.422Z,101166.88
2022-11-28T23:28:53.900Z,101165.97
2022-11-28T23:31:23.779Z,101165.97
2022-11-28T23:33:52.456Z,101168.66
2022-11-28T23:36:23.567Z,101175.78
2022-11-28T23:38:53.391Z,101169.56
2022-11-28T23:41:22.762Z,101168.63
2022-11-28T23:43:50.731Z,101177.56
2022-11-28T23:46:20.133Z,101174.88
2022-11-28T23:48:51.677Z,101178.41
2022-11-28T23:51:21.092Z,101177.56
2022-11-28T23:53:49.928Z,101179.34
2022-11-28T23:56:20.616Z,101181.13
2022-11-28T23:58:50.708Z,101183.81
